sensor_id;sensor_type;location;lat;lon;timestamp;P1;P2;P0
55518;PMS5003;41724;51.176;-0.708;2023-12-04T00:01:22;5;5;
55518;PMS5003;41724;51.176;-0.708;2023-12-04T00:03:48;9;9;
55518;PMS5003;41724;51.176;-0.708;2023-12-04T00:06:16;7;7;
55518;PMS5003;41724;51.176;-0.708;2023-12-04T00:08:43;13;10;
55518;PMS5003;41724;51.176;-0.708;2023-12-04T00:11:10;6;6;
55518;PMS5003;41724;51.176;-0.708;2023-12-04T00:13:37;9;9;
55518;PMS5003;41724;51.176;-0.708;2023-12-04T00:16:04;6;6;
55518;PMS5003;41724;51.176;-0.708;2023-12-04T00:18:32;7;7;
55518;PMS5003;41724;51.176;-0.708;2023-12-04T00:20:59;5;5;
55518;PMS5003;41724;51.176;-0.708;2023-12-04T00:23:26;5;4;
55518;PMS5003;41724;51.176;-0.708;2023-12-04T00:25:54;6;6;
55518;PMS5003;41724;51.176;-0.708;2023-12-04T00:28:21;6;5;
55518;PMS5003;41724;51.176;-0.708;2023-12-04T00:30:49;5;5;
55518;PMS5003;41724;51.176;-0.708;2023-12-04T00:33:16;4;4;
55518;PMS5003;41724;51.176;-0.708;2023-12-04T00:35:43;7;6;
55518;PMS5003;41724;51.176;-0.708;2023-12-04T00:38:10;5;4;
55518;PMS5003;41724;51.176;-0.708;2023-12-04T00:40:37;5;5;
55518;PMS5003;41724;51.176;-0.708;2023-12-04T00:43:04;7;6;
55518;PMS5003;41724;51.176;-0.708;2023-12-04T00:45:32;4;4;
55518;PMS5003;41724;51.176;-0.708;2023-12-04T00:47:58;5;5;
55518;PMS5003;41724;51.176;-0.708;2023-12-04T00:50:25;6;5;
55518;PMS5003;41724;51.176;-0.708;2023-12-04T00:52:53;7;7;
55518;PMS5003;41724;51.176;-0.708;2023-12-04T00:55:20;5;5;
55518;PMS5003;41724;51.176;-0.708;2023-12-04T00:57:47;5;4;
55518;PMS5003;41724;51.176;-0.708;2023-12-04T01:00:14;4;4;
55518;PMS5003;41724;51.176;-0.708;2023-12-04T01:02:42;6;6;
55518;PMS5003;41724;51.176;-0.708;2023-12-04T01:05:09;4;4;
55518;PMS5003;41724;51.176;-0.708;2023-12-04T01:07:36;5;5;
55518;PMS5003;41724;51.176;-0.708;2023-12-04T01:10:04;5;5;
55518;PMS5003;41724;51.176;-0.708;2023-12-04T01:12:31;6;6;
55518;PMS5003;41724;51.176;-0.708;2023-12-04T01:14:59;6;5;
55518;PMS5003;41724;51.176;-0.708;2023-12-04T01:17:27;7;7;
55518;PMS5003;41724;51.176;-0.708;2023-12-04T01:19:54;4;4;
55518;PMS5003;41724;51.176;-0.708;2023-12-04T01:22:21;5;4;
55518;PMS5003;41724;51.176;-0.708;2023-12-04T01:24:49;5;4;
55518;PMS5003;41724;51.176;-0.708;2023-12-04T01:27:16;4;4;
55518;PMS5003;41724;51.176;-0.708;2023-12-04T01:29:43;6;5;
55518;PMS5003;41724;51.176;-0.708;2023-12-04T01:32:10;6;6;
55518;PMS5003;41724;51.176;-0.708;2023-12-04T01:34:37;4;4;
55518;PMS5003;41724;51.176;-0.708;2023-12-04T01:37:05;4;2;
55518;PMS5003;41724;51.176;-0.708;2023-12-04T01:39:32;5;4;
55518;PMS5003;41724;51.176;-0.708;2023-12-04T01:41:59;3;3;
55518;PMS5003;41724;51.176;-0.708;2023-12-04T01:44:26;4;4;
55518;PMS5003;41724;51.176;-0.708;2023-12-04T01:46:54;3;3;
55518;PMS5003;41724;51.176;-0.708;2023-12-04T01:49:21;5;3;
55518;PMS5003;41724;51.176;-0.708;2023-12-04T01:51:50;4;4;
55518;PMS5003;41724;51.176;-0.708;2023-12-04T01:54:17;3;3;
55518;PMS5003;41724;51.176;-0.708;2023-12-04T01:56:45;4;3;
55518;PMS5003;41724;51.176;-0.708;2023-12-04T01:59:13;3;3;
55518;PMS5003;41724;51.176;-0.708;2023-12-04T02:01:40;4;4;
55518;PMS5003;41724;51.176;-0.708;2023-12-04T02:04:09;2;2;
55518;PMS5003;41724;51.176;-0.708;2023-12-04T02:06:35;5;3;
55518;PMS5003;41724;51.176;-0.708;2023-12-04T02:09:02;9;8;
55518;PMS5003;41724;51.176;-0.708;2023-12-04T02:11:29;3;3;
55518;PMS5003;41724;51.176;-0.708;2023-12-04T02:13:57;3;3;
55518;PMS5003;41724;51.176;-0.708;2023-12-04T02:16:24;5;4;
55518;PMS5003;41724;51.176;-0.708;2023-12-04T02:18:56;4;4;
55518;PMS5003;41724;51.176;-0.708;2023-12-04T02:21:24;4;3;
55518;PMS5003;41724;51.176;-0.708;2023-12-04T02:23:51;4;4;
55518;PMS5003;41724;51.176;-0.708;2023-12-04T02:26:21;3;3;
55518;PMS5003;41724;51.176;-0.708;2023-12-04T02:28:55;4;3;
55518;PMS5003;41724;51.176;-0.708;2023-12-04T02:31:30;4;2;
55518;PMS5003;41724;51.176;-0.708;2023-12-04T02:33:59;1;1;
55518;PMS5003;41724;51.176;-0.708;2023-12-04T02:36:31;4;3;
55518;PMS5003;41724;51.176;-0.708;2023-12-04T02:39:00;4;3;
55518;PMS5003;41724;51.176;-0.708;2023-12-04T02:41:27;3;3;
55518;PMS5003;41724;51.176;-0.708;2023-12-04T02:43:55;1;1;
55518;PMS5003;41724;51.176;-0.708;2023-12-04T02:46:22;4;3;
55518;PMS5003;41724;51.176;-0.708;2023-12-04T02:48:49;2;1;
55518;PMS5003;41724;51.176;-0.708;2023-12-04T02:51:17;2;2;
55518;PMS5003;41724;51.176;-0.708;2023-12-04T02:53:44;2;2;
55518;PMS5003;41724;51.176;-0.708;2023-12-04T02:56:11;2;2;
55518;PMS5003;41724;51.176;-0.708;2023-12-04T02:58:38;4;4;
55518;PMS5003;41724;51.176;-0.708;2023-12-04T03:01:06;3;2;
55518;PMS5003;41724;51.176;-0.708;2023-12-04T03:03:33;3;3;
55518;PMS5003;41724;51.176;-0.708;2023-12-04T03:06:00;2;2;
55518;PMS5003;41724;51.176;-0.708;2023-12-04T03:08:27;2;1;
55518;PMS5003;41724;51.176;-0.708;2023-12-04T03:10:54;2;2;
55518;PMS5003;41724;51.176;-0.708;2023-12-04T03:13:22;2;2;
55518;PMS5003;41724;51.176;-0.708;2023-12-04T03:15:49;1;1;
55518;PMS5003;41724;51.176;-0.708;2023-12-04T03:18:16;3;3;
55518;PMS5003;41724;51.176;-0.708;2023-12-04T03:20:43;2;2;
55518;PMS5003;41724;51.176;-0.708;2023-12-04T03:23:10;2;2;
55518;PMS5003;41724;51.176;-0.708;2023-12-04T03:25:38;2;1;
55518;PMS5003;41724;51.176;-0.708;2023-12-04T03:28:05;2;1;
55518;PMS5003;41724;51.176;-0.708;2023-12-04T03:30:32;2;2;
55518;PMS5003;41724;51.176;-0.708;2023-12-04T03:32:59;1;1;
55518;PMS5003;41724;51.176;-0.708;2023-12-04T03:35:26;3;2;
55518;PMS5003;41724;51.176;-0.708;2023-12-04T03:37:54;2;1;
55518;PMS5003;41724;51.176;-0.708;2023-12-04T03:40:21;1;1;
55518;PMS5003;41724;51.176;-0.708;2023-12-04T03:42:48;2;2;
55518;PMS5003;41724;51.176;-0.708;2023-12-04T03:45:15;3;3;
55518;PMS5003;41724;51.176;-0.708;2023-12-04T03:47:42;2;1;
55518;PMS5003;41724;51.176;-0.708;2023-12-04T03:50:10;2;2;
55518;PMS5003;41724;51.176;-0.708;2023-12-04T03:52:37;2;2;
55518;PMS5003;41724;51.176;-0.708;2023-12-04T03:55:04;1;1;
55518;PMS5003;41724;51.176;-0.708;2023-12-04T03:57:32;3;2;
55518;PMS5003;41724;51.176;-0.708;2023-12-04T03:59:59;3;1;
55518;PMS5003;41724;51.176;-0.708;2023-12-04T04:02:26;2;2;
55518;PMS5003;41724;51.176;-0.708;2023-12-04T04:04:54;1;1;
55518;PMS5003;41724;51.176;-0.708;2023-12-04T04:07:21;2;2;
55518;PMS5003;41724;51.176;-0.708;2023-12-04T04:09:48;2;2;
55518;PMS5003;41724;51.176;-0.708;2023-12-04T04:12:16;2;2;
55518;PMS5003;41724;51.176;-0.708;2023-12-04T04:14:43;2;2;
55518;PMS5003;41724;51.176;-0.708;2023-12-04T04:17:10;1;1;
55518;PMS5003;41724;51.176;-0.708;2023-12-04T04:19:37;2;2;
55518;PMS5003;41724;51.176;-0.708;2023-12-04T04:22:04;3;3;
55518;PMS5003;41724;51.176;-0.708;2023-12-04T04:24:32;1;1;
55518;PMS5003;41724;51.176;-0.708;2023-12-04T04:26:59;2;1;
55518;PMS5003;41724;51.176;-0.708;2023-12-04T04:29:26;1;1;
55518;PMS5003;41724;51.176;-0.708;2023-12-04T04:31:53;2;2;
55518;PMS5003;41724;51.176;-0.708;2023-12-04T04:34:21;2;2;
55518;PMS5003;41724;51.176;-0.708;2023-12-04T04:36:48;2;2;
55518;PMS5003;41724;51.176;-0.708;2023-12-04T04:39:15;1;1;
55518;PMS5003;41724;51.176;-0.708;2023-12-04T04:41:42;1;1;
55518;PMS5003;41724;51.176;-0.708;2023-12-04T04:44:10;1;1;
55518;PMS5003;41724;51.176;-0.708;2023-12-04T04:46:37;1;1;
55518;PMS5003;41724;51.176;-0.708;2023-12-04T04:49:04;2;2;
55518;PMS5003;41724;51.176;-0.708;2023-12-04T04:51:32;1;1;
55518;PMS5003;41724;51.176;-0.708;2023-12-04T04:53:58;1;1;
55518;PMS5003;41724;51.176;-0.708;2023-12-04T04:56:26;1;1;
55518;PMS5003;41724;51.176;-0.708;2023-12-04T04:58:53;1;1;
55518;PMS5003;41724;51.176;-0.708;2023-12-04T05:01:20;0;0;
55518;PMS5003;41724;51.176;-0.708;2023-12-04T05:03:47;1;1;
55518;PMS5003;41724;51.176;-0.708;2023-12-04T05:06:14;1;1;
55518;PMS5003;41724;51.176;-0.708;2023-12-04T05:08:42;3;2;
55518;PMS5003;41724;51.176;-0.708;2023-12-04T05:11:09;1;1;
55518;PMS5003;41724;51.176;-0.708;2023-12-04T05:13:36;3;2;
55518;PMS5003;41724;51.176;-0.708;2023-12-04T05:16:04;1;1;
55518;PMS5003;41724;51.176;-0.708;2023-12-04T05:18:31;2;2;
55518;PMS5003;41724;51.176;-0.708;2023-12-04T05:20:58;3;2;
55518;PMS5003;41724;51.176;-0.708;2023-12-04T05:23:26;3;2;
55518;PMS5003;41724;51.176;-0.708;2023-12-04T05:25:53;2;2;
55518;PMS5003;41724;51.176;-0.708;2023-12-04T05:28:20;2;2;
55518;PMS5003;41724;51.176;-0.708;2023-12-04T05:30:47;3;3;
55518;PMS5003;41724;51.176;-0.708;2023-12-04T05:33:14;2;2;
55518;PMS5003;41724;51.176;-0.708;2023-12-04T05:35:41;2;2;
55518;PMS5003;41724;51.176;-0.708;2023-12-04T05:38:09;3;2;
55518;PMS5003;41724;51.176;-0.708;2023-12-04T05:40:36;3;2;
55518;PMS5003;41724;51.176;-0.708;2023-12-04T05:43:03;5;5;
55518;PMS5003;41724;51.176;-0.708;2023-12-04T05:45:30;5;5;
55518;PMS5003;41724;51.176;-0.708;2023-12-04T05:47:57;3;3;
55518;PMS5003;41724;51.176;-0.708;2023-12-04T05:50:24;4;4;
55518;PMS5003;41724;51.176;-0.708;2023-12-04T05:52:51;4;4;
55518;PMS5003;41724;51.176;-0.708;2023-12-04T05:55:18;4;3;
55518;PMS5003;41724;51.176;-0.708;2023-12-04T05:57:46;5;3;
55518;PMS5003;41724;51.176;-0.708;2023-12-04T06:00:13;3;3;
55518;PMS5003;41724;51.176;-0.708;2023-12-04T06:02:41;3;3;
55518;PMS5003;41724;51.176;-0.708;2023-12-04T06:05:09;3;3;
55518;PMS5003;41724;51.176;-0.708;2023-12-04T06:07:36;3;3;
55518;PMS5003;41724;51.176;-0.708;2023-12-04T06:10:04;2;2;
55518;PMS5003;41724;51.176;-0.708;2023-12-04T06:12:32;3;3;
55518;PMS5003;41724;51.176;-0.708;2023-12-04T06:14:59;3;3;
55518;PMS5003;41724;51.176;-0.708;2023-12-04T06:17:26;1;1;
55518;PMS5003;41724;51.176;-0.708;2023-12-04T06:19:54;2;2;
55518;PMS5003;41724;51.176;-0.708;2023-12-04T06:22:21;2;1;
55518;PMS5003;41724;51.176;-0.708;2023-12-04T06:24:49;5;4;
55518;PMS5003;41724;51.176;-0.708;2023-12-04T06:27:17;3;2;
55518;PMS5003;41724;51.176;-0.708;2023-12-04T06:29:45;3;3;
55518;PMS5003;41724;51.176;-0.708;2023-12-04T06:32:13;2;2;
55518;PMS5003;41724;51.176;-0.708;2023-12-04T06:34:42;4;4;
55518;PMS5003;41724;51.176;-0.708;2023-12-04T06:37:10;2;2;
55518;PMS5003;41724;51.176;-0.708;2023-12-04T06:39:39;3;3;
55518;PMS5003;41724;51.176;-0.708;2023-12-04T06:42:07;5;4;
55518;PMS5003;41724;51.176;-0.708;2023-12-04T06:44:35;4;3;
55518;PMS5003;41724;51.176;-0.708;2023-12-04T06:47:03;2;2;
55518;PMS5003;41724;51.176;-0.708;2023-12-04T06:49:34;2;1;
55518;PMS5003;41724;51.176;-0.708;2023-12-04T06:52:01;2;2;
55518;PMS5003;41724;51.176;-0.708;2023-12-04T06:54:30;1;1;
55518;PMS5003;41724;51.176;-0.708;2023-12-04T06:56:57;2;2;
55518;PMS5003;41724;51.176;-0.708;2023-12-04T06:59:24;2;2;
55518;PMS5003;41724;51.176;-0.708;2023-12-04T07:01:51;2;2;
55518;PMS5003;41724;51.176;-0.708;2023-12-04T07:04:18;2;1;
55518;PMS5003;41724;51.176;-0.708;2023-12-04T07:06:46;2;2;
55518;PMS5003;41724;51.176;-0.708;2023-12-04T07:09:14;1;1;
55518;PMS5003;41724;51.176;-0.708;2023-12-04T07:11:41;2;2;
55518;PMS5003;41724;51.176;-0.708;2023-12-04T07:14:08;2;2;
55518;PMS5003;41724;51.176;-0.708;2023-12-04T07:16:40;0;0;
55518;PMS5003;41724;51.176;-0.708;2023-12-04T07:19:08;1;1;
55518;PMS5003;41724;51.176;-0.708;2023-12-04T07:21:35;2;2;
55518;PMS5003;41724;51.176;-0.708;2023-12-04T07:24:02;1;1;
55518;PMS5003;41724;51.176;-0.708;2023-12-04T07:26:30;2;2;
55518;PMS5003;41724;51.176;-0.708;2023-12-04T07:28:57;2;2;
55518;PMS5003;41724;51.176;-0.708;2023-12-04T07:31:24;2;2;
55518;PMS5003;41724;51.176;-0.708;2023-12-04T07:33:51;1;1;
55518;PMS5003;41724;51.176;-0.708;2023-12-04T07:36:18;1;1;
55518;PMS5003;41724;51.176;-0.708;2023-12-04T07:38:46;1;1;
55518;PMS5003;41724;51.176;-0.708;2023-12-04T07:41:13;2;1;
55518;PMS5003;41724;51.176;-0.708;2023-12-04T07:43:40;2;2;
55518;PMS5003;41724;51.176;-0.708;2023-12-04T07:46:08;2;2;
55518;PMS5003;41724;51.176;-0.708;2023-12-04T07:48:36;2;1;
55518;PMS5003;41724;51.176;-0.708;2023-12-04T07:51:03;2;2;
55518;PMS5003;41724;51.176;-0.708;2023-12-04T07:53:31;2;2;
55518;PMS5003;41724;51.176;-0.708;2023-12-04T07:56:02;2;2;
55518;PMS5003;41724;51.176;-0.708;2023-12-04T07:58:30;2;2;
55518;PMS5003;41724;51.176;-0.708;2023-12-04T08:00:57;2;2;
55518;PMS5003;41724;51.176;-0.708;2023-12-04T08:03:24;2;2;
55518;PMS5003;41724;51.176;-0.708;2023-12-04T08:05:52;3;2;
55518;PMS5003;41724;51.176;-0.708;2023-12-04T08:08:19;4;3;
55518;PMS5003;41724;51.176;-0.708;2023-12-04T08:10:47;3;2;
55518;PMS5003;41724;51.176;-0.708;2023-12-04T08:13:14;3;3;
55518;PMS5003;41724;51.176;-0.708;2023-12-04T08:15:41;4;3;
55518;PMS5003;41724;51.176;-0.708;2023-12-04T08:18:08;4;4;
55518;PMS5003;41724;51.176;-0.708;2023-12-04T08:20:35;5;4;
55518;PMS5003;41724;51.176;-0.708;2023-12-04T08:23:03;4;4;
55518;PMS5003;41724;51.176;-0.708;2023-12-04T08:25:30;5;4;
55518;PMS5003;41724;51.176;-0.708;2023-12-04T08:27:58;4;3;
55518;PMS5003;41724;51.176;-0.708;2023-12-04T08:30:25;3;3;
55518;PMS5003;41724;51.176;-0.708;2023-12-04T08:32:52;4;3;
55518;PMS5003;41724;51.176;-0.708;2023-12-04T08:35:19;4;3;
55518;PMS5003;41724;51.176;-0.708;2023-12-04T08:37:46;3;2;
55518;PMS5003;41724;51.176;-0.708;2023-12-04T08:40:13;5;4;
55518;PMS5003;41724;51.176;-0.708;2023-12-04T08:42:40;3;3;
55518;PMS5003;41724;51.176;-0.708;2023-12-04T08:45:09;3;3;
55518;PMS5003;41724;51.176;-0.708;2023-12-04T08:47:36;3;2;
55518;PMS5003;41724;51.176;-0.708;2023-12-04T08:50:04;5;5;
55518;PMS5003;41724;51.176;-0.708;2023-12-04T08:52:32;4;4;
55518;PMS5003;41724;51.176;-0.708;2023-12-04T08:54:59;2;2;
55518;PMS5003;41724;51.176;-0.708;2023-12-04T08:57:26;2;2;
55518;PMS5003;41724;51.176;-0.708;2023-12-04T08:59:54;3;3;
55518;PMS5003;41724;51.176;-0.708;2023-12-04T09:02:21;4;4;
55518;PMS5003;41724;51.176;-0.708;2023-12-04T09:04:48;5;3;
55518;PMS5003;41724;51.176;-0.708;2023-12-04T09:07:15;2;2;
55518;PMS5003;41724;51.176;-0.708;2023-12-04T09:09:42;3;2;
55518;PMS5003;41724;51.176;-0.708;2023-12-04T09:12:09;3;3;
55518;PMS5003;41724;51.176;-0.708;2023-12-04T09:14:36;4;3;
55518;PMS5003;41724;51.176;-0.708;2023-12-04T09:17:04;1;1;
55518;PMS5003;41724;51.176;-0.708;2023-12-04T09:19:31;4;3;
55518;PMS5003;41724;51.176;-0.708;2023-12-04T09:21:59;3;3;
55518;PMS5003;41724;51.176;-0.708;2023-12-04T09:24:26;3;3;
55518;PMS5003;41724;51.176;-0.708;2023-12-04T09:26:53;2;2;
55518;PMS5003;41724;51.176;-0.708;2023-12-04T09:29:20;1;1;
55518;PMS5003;41724;51.176;-0.708;2023-12-04T09:31:47;2;2;
55518;PMS5003;41724;51.176;-0.708;2023-12-04T09:34:14;2;2;
55518;PMS5003;41724;51.176;-0.708;2023-12-04T09:36:41;3;2;
55518;PMS5003;41724;51.176;-0.708;2023-12-04T09:39:08;5;4;
55518;PMS5003;41724;51.176;-0.708;2023-12-04T09:41:35;2;2;
55518;PMS5003;41724;51.176;-0.708;2023-12-04T09:44:03;2;1;
55518;PMS5003;41724;51.176;-0.708;2023-12-04T09:46:31;4;3;
55518;PMS5003;41724;51.176;-0.708;2023-12-04T09:48:58;1;1;
55518;PMS5003;41724;51.176;-0.708;2023-12-04T09:51:26;3;3;
55518;PMS5003;41724;51.176;-0.708;2023-12-04T09:53:54;3;3;
55518;PMS5003;41724;51.176;-0.708;2023-12-04T09:56:25;3;3;
55518;PMS5003;41724;51.176;-0.708;2023-12-04T09:58:57;4;3;
55518;PMS5003;41724;51.176;-0.708;2023-12-04T10:01:27;2;2;
55518;PMS5003;41724;51.176;-0.708;2023-12-04T10:03:55;4;4;
55518;PMS5003;41724;51.176;-0.708;2023-12-04T10:06:23;4;3;
55518;PMS5003;41724;51.176;-0.708;2023-12-04T10:08:55;5;5;
55518;PMS5003;41724;51.176;-0.708;2023-12-04T10:11:22;3;3;
55518;PMS5003;41724;51.176;-0.708;2023-12-04T10:13:49;3;3;
55518;PMS5003;41724;51.176;-0.708;2023-12-04T10:16:29;4;3;
55518;PMS5003;41724;51.176;-0.708;2023-12-04T10:18:58;4;4;
55518;PMS5003;41724;51.176;-0.708;2023-12-04T10:21:42;3;3;
55518;PMS5003;41724;51.176;-0.708;2023-12-04T10:24:09;4;4;
55518;PMS5003;41724;51.176;-0.708;2023-12-04T10:26:36;2;2;
55518;PMS5003;41724;51.176;-0.708;2023-12-04T10:29:05;5;5;
55518;PMS5003;41724;51.176;-0.708;2023-12-04T10:31:33;3;3;
55518;PMS5003;41724;51.176;-0.708;2023-12-04T10:34:01;4;4;
55518;PMS5003;41724;51.176;-0.708;2023-12-04T10:36:28;4;4;
55518;PMS5003;41724;51.176;-0.708;2023-12-04T10:38:58;4;4;
55518;PMS5003;41724;51.176;-0.708;2023-12-04T10:41:25;4;4;
55518;PMS5003;41724;51.176;-0.708;2023-12-04T10:43:52;6;4;
55518;PMS5003;41724;51.176;-0.708;2023-12-04T10:46:22;4;3;
55518;PMS5003;41724;51.176;-0.708;2023-12-04T10:48:51;3;3;
55518;PMS5003;41724;51.176;-0.708;2023-12-04T10:51:18;4;4;
55518;PMS5003;41724;51.176;-0.708;2023-12-04T10:53:46;5;5;
55518;PMS5003;41724;51.176;-0.708;2023-12-04T10:56:14;4;3;
55518;PMS5003;41724;51.176;-0.708;2023-12-04T10:58:46;4;4;
55518;PMS5003;41724;51.176;-0.708;2023-12-04T11:01:17;4;4;
55518;PMS5003;41724;51.176;-0.708;2023-12-04T11:03:47;5;5;
55518;PMS5003;41724;51.176;-0.708;2023-12-04T11:06:20;5;5;
55518;PMS5003;41724;51.176;-0.708;2023-12-04T11:08:50;5;5;
55518;PMS5003;41724;51.176;-0.708;2023-12-04T11:11:24;5;5;
55518;PMS5003;41724;51.176;-0.708;2023-12-04T11:14:00;6;6;
55518;PMS5003;41724;51.176;-0.708;2023-12-04T11:16:34;6;5;
55518;PMS5003;41724;51.176;-0.708;2023-12-04T11:19:10;4;4;
55518;PMS5003;41724;51.176;-0.708;2023-12-04T11:21:45;4;4;
55518;PMS5003;41724;51.176;-0.708;2023-12-04T11:24:13;5;5;
55518;PMS5003;41724;51.176;-0.708;2023-12-04T11:26:41;7;5;
55518;PMS5003;41724;51.176;-0.708;2023-12-04T11:29:09;6;6;
55518;PMS5003;41724;51.176;-0.708;2023-12-04T11:31:40;3;3;
55518;PMS5003;41724;51.176;-0.708;2023-12-04T11:34:07;5;4;
55518;PMS5003;41724;51.176;-0.708;2023-12-04T11:36:35;4;4;
55518;PMS5003;41724;51.176;-0.708;2023-12-04T11:39:03;5;5;
55518;PMS5003;41724;51.176;-0.708;2023-12-04T11:41:34;6;5;
55518;PMS5003;41724;51.176;-0.708;2023-12-04T11:44:01;4;4;
55518;PMS5003;41724;51.176;-0.708;2023-12-04T11:46:31;4;4;
55518;PMS5003;41724;51.176;-0.708;2023-12-04T11:49:26;5;4;
55518;PMS5003;41724;51.176;-0.708;2023-12-04T11:51:56;4;3;
55518;PMS5003;41724;51.176;-0.708;2023-12-04T11:54:24;9;8;
55518;PMS5003;41724;51.176;-0.708;2023-12-04T11:56:57;4;4;
55518;PMS5003;41724;51.176;-0.708;2023-12-04T11:59:25;4;3;
55518;PMS5003;41724;51.176;-0.708;2023-12-04T12:01:54;5;4;
55518;PMS5003;41724;51.176;-0.708;2023-12-04T12:04:21;3;3;
55518;PMS5003;41724;51.176;-0.708;2023-12-04T12:06:48;5;5;
55518;PMS5003;41724;51.176;-0.708;2023-12-04T12:09:16;4;4;
55518;PMS5003;41724;51.176;-0.708;2023-12-04T12:11:44;5;5;
55518;PMS5003;41724;51.176;-0.708;2023-12-04T12:14:13;5;5;
55518;PMS5003;41724;51.176;-0.708;2023-12-04T12:16:40;5;5;
55518;PMS5003;41724;51.176;-0.708;2023-12-04T12:19:07;7;6;
55518;PMS5003;41724;51.176;-0.708;2023-12-04T12:21:34;7;6;
55518;PMS5003;41724;51.176;-0.708;2023-12-04T12:24:03;6;6;
55518;PMS5003;41724;51.176;-0.708;2023-12-04T12:26:32;6;6;
55518;PMS5003;41724;51.176;-0.708;2023-12-04T12:28:59;6;5;
55518;PMS5003;41724;51.176;-0.708;2023-12-04T12:31:26;6;5;
55518;PMS5003;41724;51.176;-0.708;2023-12-04T12:33:55;6;6;
55518;PMS5003;41724;51.176;-0.708;2023-12-04T12:36:22;5;5;
55518;PMS5003;41724;51.176;-0.708;2023-12-04T12:38:49;5;5;
55518;PMS5003;41724;51.176;-0.708;2023-12-04T12:41:17;5;5;
55518;PMS5003;41724;51.176;-0.708;2023-12-04T12:43:44;6;6;
55518;PMS5003;41724;51.176;-0.708;2023-12-04T12:46:11;5;5;
55518;PMS5003;41724;51.176;-0.708;2023-12-04T12:48:38;7;6;
55518;PMS5003;41724;51.176;-0.708;2023-12-04T12:51:05;4;4;
55518;PMS5003;41724;51.176;-0.708;2023-12-04T12:53:33;3;3;
55518;PMS5003;41724;51.176;-0.708;2023-12-04T12:56:00;5;5;
55518;PMS5003;41724;51.176;-0.708;2023-12-04T12:58:28;3;3;
55518;PMS5003;41724;51.176;-0.708;2023-12-04T13:00:55;5;5;
55518;PMS5003;41724;51.176;-0.708;2023-12-04T13:03:22;3;3;
55518;PMS5003;41724;51.176;-0.708;2023-12-04T13:05:49;3;3;
55518;PMS5003;41724;51.176;-0.708;2023-12-04T13:08:16;5;5;
55518;PMS5003;41724;51.176;-0.708;2023-12-04T13:10:43;3;3;
55518;PMS5003;41724;51.176;-0.708;2023-12-04T13:13:10;3;3;
55518;PMS5003;41724;51.176;-0.708;2023-12-04T13:15:38;3;3;
55518;PMS5003;41724;51.176;-0.708;2023-12-04T13:18:06;3;3;
55518;PMS5003;41724;51.176;-0.708;2023-12-04T13:20:33;3;3;
55518;PMS5003;41724;51.176;-0.708;2023-12-04T13:23:00;4;4;
55518;PMS5003;41724;51.176;-0.708;2023-12-04T13:25:27;6;4;
55518;PMS5003;41724;51.176;-0.708;2023-12-04T13:27:54;3;3;
55518;PMS5003;41724;51.176;-0.708;2023-12-04T13:30:21;4;4;
55518;PMS5003;41724;51.176;-0.708;2023-12-04T13:32:48;5;4;
55518;PMS5003;41724;51.176;-0.708;2023-12-04T13:35:15;4;4;
55518;PMS5003;41724;51.176;-0.708;2023-12-04T13:37:42;4;4;
55518;PMS5003;41724;51.176;-0.708;2023-12-04T13:40:11;4;4;
55518;PMS5003;41724;51.176;-0.708;2023-12-04T13:42:38;3;3;
55518;PMS5003;41724;51.176;-0.708;2023-12-04T13:45:05;4;4;
55518;PMS5003;41724;51.176;-0.708;2023-12-04T13:47:33;3;3;
55518;PMS5003;41724;51.176;-0.708;2023-12-04T13:50:00;5;5;
55518;PMS5003;41724;51.176;-0.708;2023-12-04T13:52:27;6;6;
55518;PMS5003;41724;51.176;-0.708;2023-12-04T13:54:54;6;6;
55518;PMS5003;41724;51.176;-0.708;2023-12-04T13:57:21;10;9;
55518;PMS5003;41724;51.176;-0.708;2023-12-04T13:59:48;11;10;
55518;PMS5003;41724;51.176;-0.708;2023-12-04T14:02:15;10;10;
55518;PMS5003;41724;51.176;-0.708;2023-12-04T14:04:42;13;13;
55518;PMS5003;41724;51.176;-0.708;2023-12-04T14:07:09;12;11;
55518;PMS5003;41724;51.176;-0.708;2023-12-04T14:09:36;12;11;
55518;PMS5003;41724;51.176;-0.708;2023-12-04T14:12:03;13;13;
55518;PMS5003;41724;51.176;-0.708;2023-12-04T14:14:31;14;13;
55518;PMS5003;41724;51.176;-0.708;2023-12-04T14:16:58;14;10;
55518;PMS5003;41724;51.176;-0.708;2023-12-04T14:19:25;10;10;
55518;PMS5003;41724;51.176;-0.708;2023-12-04T14:21:52;10;9;
55518;PMS5003;41724;51.176;-0.708;2023-12-04T14:24:19;7;7;
55518;PMS5003;41724;51.176;-0.708;2023-12-04T14:26:46;8;8;
55518;PMS5003;41724;51.176;-0.708;2023-12-04T14:29:13;14;12;
55518;PMS5003;41724;51.176;-0.708;2023-12-04T14:31:40;13;13;
55518;PMS5003;41724;51.176;-0.708;2023-12-04T14:34:08;19;16;
55518;PMS5003;41724;51.176;-0.708;2023-12-04T14:36:35;8;8;
55518;PMS5003;41724;51.176;-0.708;2023-12-04T14:39:02;9;9;
55518;PMS5003;41724;51.176;-0.708;2023-12-04T14:41:29;14;13;
55518;PMS5003;41724;51.176;-0.708;2023-12-04T14:43:57;10;10;
55518;PMS5003;41724;51.176;-0.708;2023-12-04T14:46:24;7;7;
55518;PMS5003;41724;51.176;-0.708;2023-12-04T14:48:51;9;8;
55518;PMS5003;41724;51.176;-0.708;2023-12-04T14:51:18;6;5;
55518;PMS5003;41724;51.176;-0.708;2023-12-04T14:53:45;6;6;
55518;PMS5003;41724;51.176;-0.708;2023-12-04T14:56:12;5;5;
55518;PMS5003;41724;51.176;-0.708;2023-12-04T14:58:39;4;4;
55518;PMS5003;41724;51.176;-0.708;2023-12-04T15:01:06;5;5;
55518;PMS5003;41724;51.176;-0.708;2023-12-04T15:03:33;4;4;
55518;PMS5003;41724;51.176;-0.708;2023-12-04T15:06:00;5;5;
55518;PMS5003;41724;51.176;-0.708;2023-12-04T15:08:28;4;4;
55518;PMS5003;41724;51.176;-0.708;2023-12-04T15:10:55;3;3;
55518;PMS5003;41724;51.176;-0.708;2023-12-04T15:13:22;3;3;
55518;PMS5003;41724;51.176;-0.708;2023-12-04T15:15:49;4;4;
55518;PMS5003;41724;51.176;-0.708;2023-12-04T15:18:16;7;6;
55518;PMS5003;41724;51.176;-0.708;2023-12-04T15:20:43;5;5;
55518;PMS5003;41724;51.176;-0.708;2023-12-04T15:23:10;5;5;
55518;PMS5003;41724;51.176;-0.708;2023-12-04T15:25:38;4;4;
55518;PMS5003;41724;51.176;-0.708;2023-12-04T15:28:05;4;4;
55518;PMS5003;41724;51.176;-0.708;2023-12-04T15:30:33;6;5;
55518;PMS5003;41724;51.176;-0.708;2023-12-04T15:32:59;4;4;
55518;PMS5003;41724;51.176;-0.708;2023-12-04T15:35:27;2;2;
55518;PMS5003;41724;51.176;-0.708;2023-12-04T15:37:54;4;4;
55518;PMS5003;41724;51.176;-0.708;2023-12-04T15:40:21;4;2;
55518;PMS5003;41724;51.176;-0.708;2023-12-04T15:42:48;7;5;
55518;PMS5003;41724;51.176;-0.708;2023-12-04T15:45:15;4;4;
55518;PMS5003;41724;51.176;-0.708;2023-12-04T15:47:42;7;6;
55518;PMS5003;41724;51.176;-0.708;2023-12-04T15:50:09;5;5;
55518;PMS5003;41724;51.176;-0.708;2023-12-04T15:52:36;4;4;
55518;PMS5003;41724;51.176;-0.708;2023-12-04T15:55:04;3;3;
55518;PMS5003;41724;51.176;-0.708;2023-12-04T15:57:32;4;4;
55518;PMS5003;41724;51.176;-0.708;2023-12-04T15:59:59;4;4;
55518;PMS5003;41724;51.176;-0.708;2023-12-04T16:02:26;3;3;
55518;PMS5003;41724;51.176;-0.708;2023-12-04T16:04:54;5;5;
55518;PMS5003;41724;51.176;-0.708;2023-12-04T16:07:21;4;3;
55518;PMS5003;41724;51.176;-0.708;2023-12-04T16:09:48;4;4;
55518;PMS5003;41724;51.176;-0.708;2023-12-04T16:12:15;5;4;
55518;PMS5003;41724;51.176;-0.708;2023-12-04T16:14:42;2;2;
55518;PMS5003;41724;51.176;-0.708;2023-12-04T16:17:09;5;5;
55518;PMS5003;41724;51.176;-0.708;2023-12-04T16:19:36;4;4;
55518;PMS5003;41724;51.176;-0.708;2023-12-04T16:22:03;5;5;
55518;PMS5003;41724;51.176;-0.708;2023-12-04T16:24:30;5;5;
55518;PMS5003;41724;51.176;-0.708;2023-12-04T16:26:58;4;4;
55518;PMS5003;41724;51.176;-0.708;2023-12-04T16:29:25;5;4;
55518;PMS5003;41724;51.176;-0.708;2023-12-04T16:31:52;5;5;
55518;PMS5003;41724;51.176;-0.708;2023-12-04T16:34:19;5;5;
55518;PMS5003;41724;51.176;-0.708;2023-12-04T16:36:46;6;6;